Time;durP1;ratioP1;P1;durP2;ratioP2;P2;SDS_P1;SDS_P2;PMS_P1;PMS_P2;Temp;Humidity;BMP_temperature;BMP_pressure;BME280_temperature;BME280_humidity;BME280_pressure;Samples;Min_cycle;Max_cycle;Signal;HPM_P1;HPM_P2
2022/11/17 00:02:20;;;;;;;37.87;21.83;;;11.20;99.90;;;11.24;77.87;93790.44;5007075;28;20457;-57
2022/11/17 00:04:48;;;;;;;44.30;23.57;;;11.20;99.90;;;11.24;78.01;93774.63;5008963;28;20497;-56
2022/11/17 00:07:15;;;;;;;37.17;18.80;;;11.20;99.90;;;11.27;77.95;93779.56;5008607;28;20454;-58
2022/11/17 00:09:42;;;;;;;37.97;20.33;;;11.20;99.90;;;11.29;77.84;93783.69;5007609;28;20842;-58
2022/11/17 00:14:54;;;;;;;38.40;20.37;;;11.30;99.90;;;11.36;77.56;93768.00;5001772;28;21137;-55
2022/11/17 00:17:23;;;;;;;33.17;18.57;;;11.30;99.90;;;11.39;77.42;93772.13;4997705;28;20926;-55
2022/11/17 00:22:34;;;;;;;33.40;19.90;;;11.30;99.90;;;11.43;77.30;93770.75;5002395;28;20453;-57
2022/11/17 00:25:02;;;;;;;38.73;21.77;;;11.40;99.90;;;11.43;77.43;93779.50;4996940;28;20493;-57
2022/11/17 00:27:30;;;;;;;30.87;18.13;;;11.40;99.90;;;11.45;77.15;93782.78;4998102;28;20465;-54
2022/11/17 00:29:57;;;;;;;35.93;20.17;;;11.40;99.90;;;11.46;77.40;93773.03;4998002;28;20507;-55
2022/11/17 00:35:10;;;;;;;34.73;18.57;;;11.40;99.90;;;11.51;77.29;93772.53;5000733;28;20504;-53
2022/11/17 00:38:14;;;;;;;41.90;22.17;;;11.40;99.90;;;11.51;77.17;93756.72;5001633;28;20509;-58
2022/11/17 00:40:27;;;;;;;33.80;19.17;;;11.40;99.90;;;11.53;77.22;93765.31;5001244;28;20536;-57
2022/11/17 00:42:54;;;;;;;44.37;21.57;;;11.50;99.90;;;11.53;77.13;93763.47;5006446;28;20958;-53
2022/11/17 00:45:21;;;;;;;38.50;21.57;;;11.50;99.90;;;11.58;77.34;93760.31;5002603;28;20911;-58
2022/11/17 00:47:50;;;;;;;32.20;18.83;;;11.50;99.90;;;11.59;77.12;93751.44;5007518;28;20464;-58
2022/11/17 00:50:17;;;;;;;36.93;20.33;;;11.60;99.90;;;11.62;77.11;93766.91;5006206;28;20981;-58
2022/11/17 00:52:44;;;;;;;35.17;19.70;;;11.60;99.90;;;11.63;77.06;93766.72;5006264;28;20989;-55
2022/11/17 00:55:12;;;;;;;35.20;18.33;;;11.60;99.90;;;11.65;77.10;93766.53;5006021;28;20550;-57
2022/11/17 00:57:39;;;;;;;30.30;19.50;;;11.60;99.90;;;11.68;77.20;93755.66;5005707;28;20520;-55
2022/11/17 01:00:09;;;;;;;30.03;17.23;;;11.60;99.90;;;11.69;76.80;93745.94;5004956;28;20485;-54
2022/11/17 01:02:36;;;;;;;29.60;17.60;;;11.60;99.90;;;11.71;76.78;93755.31;5007101;28;20445;-57
2022/11/17 01:05:05;;;;;;;27.70;16.27;;;11.70;99.90;;;11.73;76.68;93758.59;5009319;28;20898;-54
2022/11/17 01:07:33;;;;;;;27.23;16.97;;;11.70;99.90;;;11.72;77.06;93720.06;5004523;28;20466;-56
2022/11/17 01:10:00;;;;;;;30.57;16.00;;;11.70;99.90;;;11.74;76.48;93733.06;5006275;28;20504;-61
2022/11/17 01:12:27;;;;;;;21.90;13.93;;;11.70;99.90;;;11.72;76.53;93719.25;4995293;28;20468;-58
2022/11/17 01:14:54;;;;;;;18.23;10.13;;;11.70;99.90;;;11.72;76.39;93735.88;5000267;28;20481;-57
2022/11/17 01:17:22;;;;;;;16.20;10.10;;;11.70;99.90;;;11.73;76.06;93721.72;4999761;28;20449;-58
2022/11/17 01:19:49;;;;;;;17.63;11.50;;;11.70;99.90;;;11.73;76.12;93729.63;4999013;28;20636;-57
2022/11/17 01:22:18;;;;;;;22.67;12.50;;;11.70;99.90;;;11.72;75.93;93719.25;5002105;28;20466;-58
2022/11/17 01:24:45;;;;;;;17.23;11.73;;;11.60;99.90;;;11.74;75.92;93736.53;5001534;28;20497;-53
2022/11/17 01:27:12;;;;;;;19.23;10.73;;;11.70;99.90;;;11.73;76.04;93726.16;4997555;28;20465;-56
2022/11/17 01:29:39;;;;;;;16.37;10.20;;;11.70;99.90;;;11.73;75.99;93721.72;4996767;28;20577;-58
2022/11/17 01:32:07;;;;;;;15.90;10.23;;;11.70;99.90;;;11.75;75.95;93718.91;4998510;28;20469;-54
2022/11/17 01:34:34;;;;;;;16.37;10.07;;;11.70;99.90;;;11.76;75.98;93713.47;4994896;28;20490;-58
2022/11/17 01:37:20;;;;;;;15.60;10.53;;;11.70;99.90;;;11.79;75.50;93705.19;4998001;28;20496;-57
2022/11/17 01:39:49;;;;;;;17.10;9.60;;;11.70;99.90;;;11.82;75.44;93725.94;4999211;28;20535;-58
2022/11/17 01:42:19;;;;;;;16.90;10.50;;;11.70;99.90;;;11.83;75.20;93701.22;4999512;28;20465;-55
2022/11/17 01:44:58;;;;;;;12.63;9.00;;;11.80;99.90;;;11.84;75.46;93697.59;5002080;28;20508;-58
2022/11/17 01:47:34;;;;;;;18.87;11.10;;;11.80;99.90;;;11.88;75.26;93702.50;4998213;28;20457;-57
2022/11/17 01:50:06;;;;;;;19.27;12.03;;;11.80;99.90;;;11.87;75.28;93703.47;4997647;28;20528;-58
2022/11/17 01:52:33;;;;;;;19.57;11.80;;;11.80;99.90;;;11.85;75.15;93698.41;4999616;28;20457;-58
2022/11/17 01:55:02;;;;;;;21.03;11.77;;;11.80;99.90;;;11.84;75.52;93694.94;4994062;28;20869;-54
2022/11/17 01:57:33;;;;;;;24.03;12.17;;;11.80;99.90;;;11.83;75.66;93698.59;5000006;28;20464;-54
2022/11/17 02:00:02;;;;;;;17.57;11.87;;;11.80;99.90;;;11.85;75.39;93693.16;5004495;28;20477;-54
2022/11/17 02:02:30;;;;;;;20.13;13.10;;;11.80;99.90;;;11.82;75.42;93699.59;5005613;28;20453;-57
2022/11/17 02:05:03;;;;;;;19.47;12.07;;;11.80;99.90;;;11.81;75.27;93686.59;5005647;28;20501;-56
2022/11/17 02:07:32;;;;;;;17.90;11.67;;;11.80;99.90;;;11.80;75.40;93693.69;5005433;28;20796;-57
2022/11/17 02:10:02;;;;;;;20.00;12.20;;;11.70;99.90;;;11.78;75.34;93697.47;5005463;28;20532;-57
2022/11/17 02:12:30;;;;;;;23.43;13.03;;;11.70;99.90;;;11.78;75.64;93687.75;4997962;28;20442;-57
2022/11/17 02:14:57;;;;;;;55.67;13.60;;;11.70;99.90;;;11.78;75.76;93698.28;5002819;28;20492;-56
2022/11/17 02:17:28;;;;;;;21.90;12.40;;;11.70;99.90;;;11.79;75.70;93686.75;4996927;28;20466;-54
2022/11/17 02:20:04;;;;;;;26.00;13.93;;;11.70;99.90;;;11.79;75.20;93689.41;4992291;28;21049;-57
2022/11/17 02:23:15;;;;;;;24.23;14.40;;;11.70;99.90;;;11.77;75.23;93696.66;5003060;28;20464;-56
2022/11/17 02:26:20;;;;;;;25.53;13.73;;;11.70;99.90;;;11.77;75.74;93695.81;4996994;28;20501;-57
2022/11/17 02:28:50;;;;;;;20.40;12.10;;;11.70;99.90;;;11.74;75.40;93691.75;4999071;28;20536;-57
2022/11/17 02:31:22;;;;;;;25.73;12.50;;;11.70;99.90;;;11.74;75.48;93685.66;5006495;28;20541;-55
2022/11/17 02:33:54;;;;;;;18.00;10.90;;;11.70;99.90;;;11.73;75.11;93674.28;5001641;28;20521;-57
2022/11/17 02:36:27;;;;;;;17.23;10.97;;;11.70;99.90;;;11.75;74.82;93677.56;4998384;28;20526;-55
2022/11/17 02:38:58;;;;;;;13.67;10.10;;;11.70;99.90;;;11.74;74.81;93656.66;4999772;28;21090;-57
2022/11/17 02:41:28;;;;;;;14.40;8.23;;;11.70;99.90;;;11.77;74.75;93653.69;5001455;28;20461;-57
2022/11/17 02:44:04;;;;;;;14.27;11.10;;;11.70;99.90;;;11.80;74.74;93659.44;5007242;28;20883;-56
2022/11/17 02:46:40;;;;;;;20.87;11.10;;;11.80;99.90;;;11.82;74.74;93667.97;5009003;28;20519;-57
2022/11/17 02:49:12;;;;;;;19.03;9.90;;;11.80;99.90;;;11.84;74.72;93662.53;5007822;28;20480;-57
2022/11/17 02:51:39;;;;;;;17.53;10.80;;;11.80;99.90;;;11.86;74.38;93651.81;5008857;28;20449;-54
2022/11/17 02:54:07;;;;;;;16.40;11.57;;;11.80;99.90;;;11.89;74.40;93662.00;5007602;28;20473;-57
2022/11/17 02:56:34;;;;;;;19.10;12.30;;;11.80;99.90;;;11.91;74.53;93665.25;5008281;28;20450;-58
2022/11/17 02:59:03;;;;;;;18.73;11.23;;;11.80;99.90;;;11.93;74.90;93658.00;4999051;28;20454;-57
2022/11/17 03:02:23;;;;;;;19.20;11.77;;;11.80;99.90;;;11.95;74.83;93672.66;5008424;28;21016;-57
2022/11/17 03:05:00;;;;;;;16.43;10.70;;;11.90;99.90;;;11.99;74.73;93689.75;4995888;28;20504;-57
2022/11/17 03:07:40;;;;;;;19.00;11.30;;;11.90;99.90;;;11.96;74.83;93671.66;5003792;28;20453;-53
2022/11/17 03:10:12;;;;;;;21.57;11.67;;;11.90;99.90;;;12.00;74.89;93674.75;5003150;28;20485;-57
2022/11/17 03:12:43;;;;;;;26.23;13.07;;;11.90;99.90;;;12.03;74.38;93671.78;4999604;28;20620;-54
2022/11/17 03:15:19;;;;;;;22.20;13.83;;;12.00;99.90;;;12.04;74.44;93656.78;4997921;28;20527;-57
2022/11/17 03:17:49;;;;;;;25.70;14.53;;;12.00;99.90;;;11.99;74.72;93666.06;5001959;28;20457;-56
2022/11/17 03:20:19;;;;;;;15.37;11.33;;;11.90;99.90;;;11.99;74.42;93646.75;5007347;28;20591;-57
2022/11/17 03:22:50;;;;;;;25.23;11.50;;;11.90;99.90;;;11.99;74.43;93667.84;5005345;28;20480;-58
2022/11/17 03:25:19;;;;;;;23.60;13.50;;;11.90;99.90;;;12.00;74.42;93670.31;4991520;28;20498;-58
2022/11/17 03:27:48;;;;;;;28.70;14.17;;;11.90;99.90;;;12.02;74.43;93667.50;4998389;28;20466;-57
2022/11/17 03:30:17;;;;;;;27.97;14.80;;;11.90;99.90;;;12.02;74.83;93667.50;5005812;28;20489;-56
2022/11/17 03:32:50;;;;;;;27.90;15.17;;;12.00;99.90;;;12.04;74.46;93673.41;5005963;28;20462;-55
2022/11/17 03:35:19;;;;;;;22.97;13.90;;;12.00;99.90;;;12.04;74.43;93685.75;4993973;28;20486;-56
2022/11/17 03:37:51;;;;;;;26.80;14.93;;;12.00;99.90;;;12.02;74.76;93696.47;5002859;28;20474;-58
2022/11/17 03:40:21;;;;;;;23.40;13.80;;;12.00;99.90;;;12.03;74.97;93690.22;5001719;28;20489;-59
2022/11/17 03:42:52;;;;;;;21.10;12.53;;;11.90;99.90;;;12.03;75.89;93684.94;4993743;28;20449;-52
2022/11/17 03:45:23;;;;;;;32.33;12.80;;;11.90;99.90;;;12.00;75.15;93690.56;5001600;28;20481;-58
2022/11/17 03:47:52;;;;;;;21.33;13.00;;;11.90;99.90;;;11.97;74.96;93685.66;4999211;28;20445;-58
2022/11/17 03:50:22;;;;;;;17.30;12.00;;;11.90;99.90;;;11.93;75.56;93676.47;5003801;28;20588;-58
2022/11/17 03:52:49;;;;;;;20.70;13.40;;;11.90;99.90;;;11.91;75.92;93660.78;4999489;28;20462;-57
2022/11/17 03:55:16;;;;;;;18.80;12.40;;;11.80;99.90;;;11.89;75.69;93675.16;4998242;28;20493;-57
2022/11/17 03:57:47;;;;;;;21.83;12.10;;;11.90;99.90;;;11.84;76.08;93662.53;4998490;28;20462;-57
2022/11/17 04:00:16;;;;;;;17.50;10.43;;;11.80;99.90;;;11.82;76.18;93652.16;5002354;28;20481;-58
2022/11/17 04:02:46;;;;;;;27.43;11.87;;;11.80;99.90;;;11.83;76.16;93663.50;4997095;28;20458;-57
2022/11/17 04:05:16;;;;;;;16.20;11.00;;;11.80;99.90;;;11.83;76.24;93666.97;5003777;28;20489;-58
2022/11/17 04:07:49;;;;;;;16.87;10.50;;;11.80;99.90;;;11.86;76.22;93657.06;5002028;28;20461;-54
2022/11/17 04:10:18;;;;;;;17.07;9.93;;;11.80;99.90;;;11.84;76.22;93665.16;5001539;28;20474;-58
2022/11/17 04:18:17;;;;;;;18.50;9.10;;;11.80;99.90;;;11.80;75.85;93630.47;4998058;28;20453;-57
2022/11/17 04:20:44;;;;;;;11.57;8.50;;;11.80;99.90;;;11.78;76.51;93632.44;4996060;28;20482;-55
2022/11/17 04:23:13;;;;;;;19.50;10.70;;;11.70;99.90;;;11.77;75.92;93633.44;5004904;28;20453;-59
2022/11/17 04:28:39;;;;;;;19.07;11.57;;;11.70;99.90;;;11.77;76.51;93640.50;5001668;28;20448;-59
2022/11/17 04:31:11;;;;;;;18.40;10.67;;;11.70;99.90;;;11.75;76.36;93624.06;4996818;28;20825;-58
2022/11/17 04:33:41;;;;;;;16.67;11.13;;;11.70;99.90;;;11.73;76.49;93645.31;4994552;28;21085;-57
2022/11/17 04:36:09;;;;;;;17.83;10.70;;;11.70;99.90;;;11.70;76.79;93636.97;5000317;28;20982;-58
2022/11/17 04:38:36;;;;;;;23.00;12.33;;;11.70;99.90;;;11.66;76.65;93636.47;4997300;28;20467;-58
2022/11/17 04:43:50;;;;;;;25.07;13.53;;;11.60;99.90;;;11.59;76.75;93635.56;5004022;28;20452;-58
2022/11/17 04:46:18;;;;;;;88.40;44.77;;;11.60;99.90;;;11.55;77.46;93636.91;4999654;28;20524;-58
2022/11/17 04:48:47;;;;;;;16.30;10.93;;;11.50;99.90;;;11.55;77.20;93615.84;5001624;28;20513;-59
2022/11/17 04:51:15;;;;;;;14.43;9.77;;;11.50;99.90;;;11.52;77.58;93632.81;5006423;28;20450;-57
2022/11/17 04:53:42;;;;;;;15.03;10.67;;;11.50;99.90;;;11.52;77.76;93624.09;5006648;28;20446;-56
2022/11/17 04:56:09;;;;;;;14.40;8.67;;;11.50;99.90;;;11.54;77.65;93627.34;5001906;28;20478;-55
2022/11/17 04:58:37;;;;;;;14.80;9.87;;;11.50;99.90;;;11.56;78.08;93617.50;5001453;28;20476;-56
2022/11/17 05:01:13;;;;;;;16.33;10.10;;;11.50;99.90;;;11.57;78.84;93625.22;5005900;28;20474;-56
2022/11/17 05:03:42;;;;;;;13.40;8.87;;;11.50;99.90;;;11.60;78.85;93618.75;4997815;28;20457;-57
2022/11/17 05:06:11;;;;;;;16.73;10.67;;;11.50;99.90;;;11.61;78.53;93607.22;5006059;28;20563;-55
2022/11/17 05:08:39;;;;;;;16.30;11.20;;;11.60;99.90;;;11.63;78.24;93621.88;5005836;28;20453;-57
2022/11/17 05:13:52;;;;;;;18.73;12.77;;;11.60;99.90;;;11.64;78.56;93609.50;5005756;28;20500;-56
2022/11/17 05:19:05;;;;;;;22.20;13.23;;;11.60;99.90;;;11.65;78.93;93611.16;5001613;28;21005;-58
2022/11/17 05:21:33;;;;;;;23.90;13.60;;;11.60;99.90;;;11.68;78.74;93594.16;5004810;28;20450;-54
2022/11/17 05:24:00;;;;;;;19.30;11.73;;;11.60;99.90;;;11.76;79.96;93594.09;5005728;28;20800;-56
2022/11/17 05:26:29;;;;;;;17.67;11.93;;;11.60;99.90;;;11.86;79.30;93581.47;5005604;28;21063;-54
2022/11/17 05:28:57;;;;;;;21.03;12.70;;;11.80;99.90;;;11.94;78.23;93604.34;5005657;28;20460;-59
2022/11/17 05:31:25;;;;;;;22.63;11.73;;;11.90;99.90;;;11.92;78.03;93599.25;5005168;28;20540;-56
2022/11/17 05:33:52;;;;;;;20.10;10.00;;;11.90;99.90;;;11.90;78.35;93566.13;5005073;28;20450;-56
2022/11/17 05:36:20;;;;;;;20.70;10.87;;;11.80;99.90;;;11.94;78.76;93614.88;5005836;28;20519;-58
2022/11/17 05:38:49;;;;;;;16.30;10.10;;;11.90;99.90;;;11.93;78.12;93584.25;5005295;28;20453;-58
2022/11/17 05:41:17;;;;;;;18.10;10.50;;;11.90;99.90;;;11.90;77.37;93589.84;5005701;28;20453;-56
2022/11/17 05:43:44;;;;;;;13.57;9.47;;;11.80;99.90;;;11.88;77.99;93607.66;5005030;28;20935;-58
2022/11/17 05:46:11;;;;;;;16.27;10.03;;;11.80;99.90;;;11.83;77.97;93630.09;5004713;28;20482;-58
2022/11/17 05:48:39;;;;;;;20.70;10.60;;;11.80;99.90;;;11.81;77.89;93602.28;5000500;28;20453;-55
2022/11/17 05:51:06;;;;;;;13.90;9.50;;;11.80;99.90;;;11.78;78.07;93613.19;5003606;28;20501;-54
2022/11/17 05:53:33;;;;;;;11.73;9.00;;;11.70;99.90;;;11.75;78.28;93610.91;5004323;28;20453;-58
2022/11/17 05:56:32;;;;;;;11.13;8.50;;;11.70;99.90;;;11.73;78.42;93623.44;5002148;28;20982;-56
2022/11/17 05:59:06;;;;;;;14.47;8.60;;;11.70;99.90;;;11.72;78.81;93606.78;5002409;28;20480;-57
2022/11/17 06:01:33;;;;;;;16.20;9.77;;;11.70;99.90;;;11.73;78.50;93594.47;5009270;28;20966;-56
2022/11/17 06:04:03;;;;;;;15.00;8.77;;;11.70;99.90;;;11.71;78.82;93597.28;5007950;28;20772;-56
2022/11/17 06:06:30;;;;;;;14.67;9.70;;;11.60;99.90;;;11.69;78.65;93612.41;5002055;28;20497;-52
2022/11/17 06:08:57;;;;;;;20.97;11.10;;;11.60;99.90;;;11.64;78.82;93597.16;5009706;28;20464;-55
2022/11/17 06:11:25;;;;;;;14.53;9.93;;;11.60;99.90;;;11.65;78.62;93619.88;5008922;28;20446;-53
2022/11/17 06:13:53;;;;;;;18.33;11.10;;;11.60;99.90;;;11.66;79.07;93620.69;5008483;28;20453;-58
2022/11/17 06:16:22;;;;;;;17.33;9.63;;;11.60;99.90;;;11.66;79.02;93632.06;5008161;28;20457;-55
2022/11/17 06:18:52;;;;;;;25.70;11.30;;;11.60;99.90;;;11.66;78.73;93633.84;5008607;28;20457;-55
2022/11/17 06:21:19;;;;;;;22.63;10.03;;;11.60;99.90;;;11.67;79.15;93648.66;5007992;28;20457;-55
2022/11/17 06:23:47;;;;;;;22.43;11.43;;;11.60;99.90;;;11.69;79.10;93673.00;5007507;28;20452;-55
2022/11/17 06:26:14;;;;;;;18.30;11.07;;;11.60;99.90;;;11.70;79.37;93681.75;5008502;28;20529;-55
2022/11/17 06:28:42;;;;;;;17.37;11.03;;;11.60;99.90;;;11.71;78.93;93693.91;5008418;28;20453;-56
2022/11/17 06:31:11;;;;;;;20.23;10.80;;;11.60;99.90;;;11.72;79.67;93699.00;5004805;28;21020;-56
2022/11/17 06:33:38;;;;;;;13.30;6.60;;;11.70;99.90;;;11.74;79.45;93697.03;5006517;28;20984;-55
2022/11/17 06:36:07;;;;;;;12.83;8.63;;;11.70;99.90;;;11.73;79.57;93702.47;5008039;28;20473;-56
2022/11/17 06:38:35;;;;;;;12.30;8.23;;;11.70;99.90;;;11.72;79.81;93722.69;5005288;28;20445;-55
2022/11/17 06:41:03;;;;;;;13.23;8.60;;;11.70;99.90;;;11.75;79.80;93724.16;5008250;28;20556;-56
2022/11/17 06:43:30;;;;;;;13.07;8.97;;;11.70;99.90;;;11.79;79.67;93718.38;5008197;28;20540;-55
2022/11/17 06:46:01;;;;;;;17.00;9.40;;;11.70;99.90;;;11.82;79.35;93736.47;5007796;28;20483;-58
2022/11/17 06:48:34;;;;;;;16.60;9.50;;;11.80;99.90;;;11.84;80.41;93749.47;5005398;28;20523;-58
2022/11/17 06:51:03;;;;;;;24.90;9.23;;;11.80;99.90;;;11.89;81.54;93764.75;5008087;28;20553;-57
2022/11/17 06:53:30;;;;;;;15.80;7.90;;;11.80;99.90;;;11.94;81.95;93784.31;5000806;28;20542;-55
2022/11/17 06:56:10;;;;;;;13.70;7.07;;;11.90;99.90;;;12.00;81.93;93777.53;5007661;28;21006;-55
2022/11/17 06:58:40;;;;;;;11.43;6.90;;;11.90;99.90;;;12.06;82.04;93774.19;5000795;28;20575;-55
2022/11/17 07:01:08;;;;;;;11.13;7.70;;;12.00;99.90;;;12.12;81.85;93777.97;5008305;28;20567;-59
2022/11/17 07:03:39;;;;;;;12.73;6.83;;;12.00;99.90;;;12.14;81.15;93779.41;5007581;28;20454;-55
2022/11/17 07:06:08;;;;;;;6.57;5.00;;;12.10;99.90;;;12.18;80.82;93780.69;5005188;28;20515;-56
2022/11/17 07:08:35;;;;;;;14.07;5.47;;;12.10;99.90;;;12.23;80.42;93774.09;5008005;28;20997;-55
2022/11/17 07:11:03;;;;;;;12.90;5.43;;;12.10;99.90;;;12.26;80.04;93764.00;5007357;28;20473;-56
2022/11/17 07:13:32;;;;;;;5.13;4.63;;;12.20;99.90;;;12.30;79.84;93741.56;5002460;28;20446;-56
2022/11/17 07:16:04;;;;;;;5.80;3.30;;;12.20;99.90;;;12.34;79.43;93731.47;5008042;28;20842;-55
2022/11/17 07:18:31;;;;;;;4.13;3.80;;;12.30;99.90;;;12.37;78.73;93707.38;5007361;28;20492;-56
2022/11/17 07:21:03;;;;;;;9.10;2.60;;;12.30;99.90;;;12.39;78.52;93694.81;5007154;28;20528;-56
2022/11/17 07:23:30;;;;;;;3.27;3.00;;;12.30;99.90;;;12.39;77.95;93668.47;5007938;28;20523;-54
2022/11/17 07:25:58;;;;;;;2.50;2.30;;;12.30;99.90;;;12.39;77.55;93657.91;5007951;28;20493;-55
2022/11/17 07:28:25;;;;;;;3.27;2.77;;;12.30;99.90;;;12.40;77.66;93656.91;5006692;28;20476;-57
2022/11/17 07:30:53;;;;;;;6.67;2.30;;;12.40;99.90;;;12.41;77.29;93666.47;5004349;28;20477;-55
2022/11/17 07:33:20;;;;;;;3.83;2.47;;;12.30;99.90;;;12.44;77.28;93708.31;5003264;28;20454;-56
2022/11/17 07:35:47;;;;;;;2.40;2.20;;;12.40;99.90;;;12.49;77.36;93703.31;4999633;28;20918;-53
2022/11/17 07:38:16;;;;;;;2.10;1.93;;;12.40;99.90;;;12.53;77.26;93677.38;5001828;28;20954;-57
2022/11/17 07:40:43;;;;;;;6.37;1.93;;;12.50;99.90;;;12.59;77.28;93678.47;5005262;28;20559;-54
2022/11/17 07:43:11;;;;;;;2.30;2.20;;;12.50;99.90;;;12.63;76.37;93680.56;4999751;28;20454;-56
2022/11/17 07:45:38;;;;;;;2.23;2.03;;;12.50;99.90;;;12.67;76.97;93675.75;5003186;28;20478;-56
2022/11/17 07:48:06;;;;;;;2.70;2.50;;;12.60;99.90;;;12.72;76.57;93668.13;5004113;28;20874;-53
2022/11/17 07:50:34;;;;;;;2.97;2.07;;;12.60;99.90;;;12.78;77.01;93661.28;5006999;28;20480;-55
2022/11/17 07:53:01;;;;;;;2.87;1.60;;;12.70;99.90;;;12.81;76.89;93661.75;5006926;28;20580;-56
2022/11/17 07:55:30;;;;;;;1.77;1.67;;;12.70;99.90;;;12.87;76.01;93670.72;5007236;28;20544;-57
2022/11/17 07:57:58;;;;;;;2.73;2.20;;;12.80;99.90;;;12.95;75.49;93675.09;5005853;28;21119;-57
2022/11/17 08:00:25;;;;;;;1.60;1.40;;;12.80;99.90;;;13.06;75.05;93677.28;5006879;28;20488;-56
2022/11/17 08:02:53;;;;;;;1.57;1.30;;;12.90;99.90;;;13.21;74.19;93682.53;5007428;28;20878;-57
2022/11/17 08:05:21;;;;;;;1.63;1.50;;;13.10;99.90;;;13.37;74.33;93681.50;5006737;28;20497;-54
2022/11/17 08:07:54;;;;;;;1.80;1.40;;;13.20;99.90;;;13.51;73.89;93685.94;5006991;28;20505;-54
2022/11/17 08:10:22;;;;;;;5.80;2.13;;;13.40;99.90;;;13.62;73.18;93689.91;5000332;28;20764;-55
2022/11/17 08:12:53;;;;;;;4.50;1.67;;;13.50;99.90;;;13.69;72.73;93695.25;5005941;28;20460;-56
2022/11/17 08:15:20;;;;;;;1.50;1.40;;;13.60;99.90;;;13.71;72.25;93695.88;5006726;28;20477;-58
2022/11/17 08:17:53;;;;;;;1.70;1.60;;;13.60;99.90;;;13.71;71.69;93711.75;5002999;28;20471;-53
2022/11/17 08:20:20;;;;;;;8.97;4.70;;;13.60;99.90;;;13.68;71.36;93709.47;5006844;28;20516;-58
2022/11/17 08:22:48;;;;;;;1.70;1.60;;;13.60;99.90;;;13.69;71.09;93729.63;5006450;28;20938;-55
2022/11/17 08:25:16;;;;;;;13.13;1.13;;;13.60;99.90;;;13.73;69.65;93728.25;5006735;28;20469;-55
2022/11/17 08:27:43;;;;;;;2.33;2.13;;;13.60;99.90;;;13.91;69.74;93719.88;5006854;28;20493;-56
2022/11/17 08:30:13;;;;;;;2.83;1.50;;;13.80;99.90;;;14.37;70.71;93731.88;5006593;28;20469;-55
2022/11/17 08:32:46;;;;;;;19.40;7.20;;;14.20;99.90;;;15.29;69.28;93724.72;5005773;28;20450;-56
2022/11/17 08:35:14;;;;;;;5.60;2.67;;;14.90;99.90;;;16.39;67.71;93722.81;5001261;28;20703;-56
2022/11/17 08:37:41;;;;;;;10.07;4.10;;;15.90;99.90;;;17.60;65.36;93719.91;5000638;28;20442;-53
2022/11/17 08:40:11;;;;;;;5.07;2.90;;;16.90;99.90;;;18.69;60.35;93723.31;5006196;28;20482;-57
2022/11/17 08:42:38;;;;;;;1.37;1.27;;;17.90;99.90;;;19.55;59.57;93723.53;5006447;28;20464;-57
2022/11/17 08:45:07;;;;;;;1.30;1.20;;;18.90;99.90;;;20.49;57.83;93735.63;5006724;28;20500;-54
2022/11/17 08:47:36;;;;;;;3.10;1.40;;;19.80;98.70;;;21.47;55.73;93728.81;5005622;28;20493;-57
2022/11/17 08:50:04;;;;;;;1.37;1.27;;;20.70;97.30;;;22.34;53.74;93740.44;5006644;28;20469;-58
2022/11/17 08:52:31;;;;;;;2.50;1.57;;;21.50;95.40;;;22.67;49.14;93746.09;5006954;28;20450;-56
2022/11/17 08:54:58;;;;;;;2.03;1.50;;;21.90;90.40;;;22.56;51.37;93735.19;5005822;28;20473;-57
2022/11/17 08:57:26;;;;;;;2.13;1.17;;;22.00;91.40;;;22.28;51.18;93744.06;5006270;28;20453;-57
2022/11/17 08:59:53;;;;;;;1.97;1.20;;;22.00;89.90;;;21.95;50.15;93734.06;5006528;28;21038;-55
2022/11/17 09:02:20;;;;;;;1.10;1.00;;;21.70;87.30;;;21.59;51.36;93720.78;5001988;28;20469;-54
2022/11/17 09:04:49;;;;;;;2.60;1.10;;;21.50;88.20;;;21.27;51.12;93725.69;5005958;28;20474;-57
2022/11/17 09:07:16;;;;;;;1.97;1.00;;;21.10;86.70;;;21.14;51.58;93735.56;5005974;28;20501;-58
2022/11/17 09:09:45;;;;;;;1.97;1.20;;;21.00;88.10;;;21.06;51.28;93733.25;5006334;28;20469;-56
2022/11/17 09:12:12;;;;;;;4.10;0.97;;;20.90;87.10;;;20.88;50.83;93733.38;5006258;28;20452;-57
2022/11/17 09:14:39;;;;;;;1.40;1.30;;;20.70;86.00;;;20.69;51.80;93730.00;5007109;28;20489;-56
2022/11/17 09:17:07;;;;;;;1.77;1.43;;;20.60;86.80;;;20.92;52.39;93727.34;5002446;28;20816;-57
2022/11/17 09:19:34;;;;;;;1.30;1.20;;;20.70;88.80;;;21.58;51.21;93726.38;4999341;28;20485;-53
2022/11/17 09:22:03;;;;;;;2.80;1.40;;;21.10;88.70;;;22.42;49.82;93719.66;5006381;28;21018;-58
2022/11/17 09:24:31;;;;;;;1.60;1.20;;;21.80;86.50;;;23.32;48.36;93714.41;5006390;28;20481;-53
2022/11/17 09:27:01;;;;;;;3.87;0.93;;;22.70;84.60;;;24.22;46.42;93719.53;5006085;28;20500;-55
2022/11/17 09:29:28;;;;;;;1.50;0.90;;;23.50;81.30;;;25.12;44.86;93719.78;5005651;28;20543;-57
2022/11/17 09:31:56;;;;;;;1.30;1.00;;;24.30;77.20;;;25.88;40.83;93715.09;5005354;28;20462;-58
2022/11/17 09:34:24;;;;;;;1.67;1.20;;;25.00;68.60;;;26.18;42.38;93719.81;5004013;28;21037;-55
2022/11/17 09:36:51;;;;;;;1.47;1.37;;;25.40;70.60;;;26.37;41.70;93721.97;5002320;28;20560;-57
2022/11/17 09:39:20;;;;;;;1.10;1.00;;;25.70;67.50;;;26.27;41.11;93717.38;5005512;28;20473;-56
2022/11/17 09:41:49;;;;;;;5.93;1.00;;;25.70;65.60;;;25.91;41.75;93717.25;5005809;28;20454;-53
2022/11/17 09:44:28;;;;;;;1.20;1.10;;;25.50;64.90;;;25.62;41.29;93717.66;5005613;28;21046;-55
2022/11/17 09:47:02;;;;;;;1.40;1.30;;;25.30;64.00;;;25.65;42.17;93713.66;5006176;28;20493;-54
2022/11/17 09:49:44;;;;;;;1.57;1.33;;;25.40;64.50;;;26.09;40.32;93714.13;5001954;28;20880;-56
2022/11/17 09:52:18;;;;;;;1.40;1.30;;;25.60;63.30;;;26.56;40.91;93716.91;5002654;28;20450;-55
2022/11/17 09:54:51;;;;;;;1.60;1.33;;;25.90;63.40;;;26.50;39.83;93721.47;5001009;28;20630;-56
2022/11/17 09:57:27;;;;;;;2.10;1.53;;;25.90;61.30;;;26.01;37.96;93719.19;5000970;28;20546;-56
2022/11/17 10:00:06;;;;;;;2.10;1.40;;;25.70;58.10;;;25.30;39.25;93707.81;5006536;28;20477;-54
2022/11/17 10:02:34;;;;;;;3.33;1.67;;;25.20;57.70;;;24.59;41.96;93703.50;5002691;28;20441;-55
2022/11/17 10:05:01;;;;;;;1.50;1.30;;;24.60;60.30;;;23.93;42.50;93707.13;5005466;28;20489;-53
2022/11/17 10:07:30;;;;;;;2.43;1.33;;;23.90;60.90;;;23.31;43.56;93704.72;5005481;28;20516;-56
2022/11/17 10:09:59;;;;;;;1.47;1.20;;;23.30;61.70;;;22.76;43.19;93712.47;5005729;28;20564;-55
2022/11/17 10:12:31;;;;;;;1.60;1.17;;;22.80;62.00;;;22.28;44.61;93709.25;5004514;28;20453;-56
2022/11/17 10:14:58;;;;;;;2.30;1.47;;;22.30;63.10;;;21.91;45.10;93703.47;5001611;28;20485;-57
2022/11/17 10:17:26;;;;;;;4.00;2.40;;;21.80;64.90;;;21.57;45.33;93712.19;5004933;28;20457;-60
2022/11/17 10:19:53;;;;;;;7.53;2.13;;;21.50;65.10;;;21.25;46.21;93706.41;5004780;28;20474;-55
2022/11/17 10:22:32;;;;;;;3.97;1.77;;;21.20;66.90;;;20.94;46.92;93708.38;5005239;28;20489;-56
2022/11/17 10:25:00;;;;;;;2.00;1.60;;;20.80;67.60;;;20.68;47.59;93705.13;5005216;28;20997;-53
2022/11/17 10:27:29;;;;;;;4.20;1.30;;;20.60;68.80;;;20.44;47.29;93692.75;5005637;28;20500;-55
2022/11/17 10:30:01;;;;;;;1.63;1.07;;;20.30;68.90;;;20.27;48.20;93696.09;5005506;28;20477;-55
2022/11/17 10:32:29;;;;;;;2.53;2.00;;;20.10;70.40;;;20.41;48.61;93684.16;5004791;28;20442;-55
2022/11/17 10:34:56;;;;;;;2.13;1.90;;;20.20;71.60;;;20.66;48.65;93687.69;5004720;28;20507;-56
2022/11/17 10:37:27;;;;;;;2.77;2.00;;;20.30;72.10;;;21.16;48.07;93681.06;5004576;28;20465;-57
2022/11/17 10:40:15;;;;;;;4.20;1.90;;;20.80;72.50;;;21.74;46.94;93690.84;5004964;28;20476;-58
2022/11/17 10:42:44;;;;;;;6.47;4.50;;;21.20;71.30;;;22.21;46.94;93689.81;5000513;28;20450;-57
2022/11/17 10:45:16;;;;;;;8.73;5.90;;;21.70;71.10;;;22.96;45.99;93678.97;4999435;28;20480;-55
2022/11/17 10:47:43;;;;;;;6.53;4.83;;;22.30;70.20;;;23.61;44.46;93688.22;5005860;28;20477;-57
2022/11/17 10:50:26;;;;;;;4.90;4.50;;;22.90;69.00;;;23.88;43.65;93701.69;5008264;28;20573;-57